sensor_id;sensor_type;location;lat;lon;timestamp;pressure;altitude;pressure_sealevel;temperature;humidity
11523;BME280;40093;43.224;27.910;2023-02-14T00:02:22;101995.34;;;2.84;100.00
11523;BME280;40093;43.224;27.910;2023-02-14T00:04:49;101989.78;;;2.94;100.00
11523;BME280;40093;43.224;27.910;2023-02-14T00:07:16;101986.66;;;3.06;100.00
11523;BME280;40093;43.224;27.910;2023-02-14T00:09:43;101980.53;;;3.19;100.00
11523;BME280;40093;43.224;27.910;2023-02-14T00:12:10;101974.66;;;3.30;100.00
11523;BME280;40093;43.224;27.910;2023-02-14T00:14:38;101975.09;;;3.37;100.00
11523;BME280;40093;43.224;27.910;2023-02-14T00:17:22;101974.50;;;3.40;100.00
11523;BME280;40093;43.224;27.910;2023-02-14T00:19:49;101969.00;;;3.45;100.00
11523;BME280;40093;43.224;27.910;2023-02-14T00:22:16;101979.06;;;3.45;100.00
11523;BME280;40093;43.224;27.910;2023-02-14T00:24:43;101972.00;;;3.44;100.00
11523;BME280;40093;43.224;27.910;2023-02-14T00:27:10;101970.00;;;3.12;100.00
11523;BME280;40093;43.224;27.910;2023-02-14T00:29:38;101960.97;;;3.17;100.00
11523;BME280;40093;43.224;27.910;2023-02-14T00:32:05;101951.47;;;3.14;100.00
11523;BME280;40093;43.224;27.910;2023-02-14T00:34:32;101956.88;;;2.96;100.00
11523;BME280;40093;43.224;27.910;2023-02-14T00:37:01;101958.59;;;2.87;100.00
11523;BME280;40093;43.224;27.910;2023-02-14T00:39:28;101952.53;;;2.95;100.00
11523;BME280;40093;43.224;27.910;2023-02-14T00:41:54;101940.59;;;2.91;100.00
11523;BME280;40093;43.224;27.910;2023-02-14T00:44:21;101940.44;;;2.59;100.00
11523;BME280;40093;43.224;27.910;2023-02-14T00:46:49;101934.81;;;2.50;100.00
11523;BME280;40093;43.224;27.910;2023-02-14T00:49:17;101931.72;;;2.62;100.00
11523;BME280;40093;43.224;27.910;2023-02-14T00:51:43;101921.25;;;2.50;100.00
11523;BME280;40093;43.224;27.910;2023-02-14T00:54:10;101918.63;;;2.40;100.00
11523;BME280;40093;43.224;27.910;2023-02-14T00:56:37;101917.25;;;2.43;100.00
11523;BME280;40093;43.224;27.910;2023-02-14T00:59:04;101906.97;;;2.40;100.00
11523;BME280;40093;43.224;27.910;2023-02-14T01:01:31;101910.22;;;2.37;100.00
11523;BME280;40093;43.224;27.910;2023-02-14T01:03:59;101910.72;;;2.44;100.00
11523;BME280;40093;43.224;27.910;2023-02-14T01:06:26;101908.09;;;2.34;100.00
11523;BME280;40093;43.224;27.910;2023-02-14T01:08:53;101901.63;;;2.30;100.00
11523;BME280;40093;43.224;27.910;2023-02-14T01:11:21;101898.09;;;2.30;100.00
11523;BME280;40093;43.224;27.910;2023-02-14T01:13:49;101894.00;;;2.32;100.00
11523;BME280;40093;43.224;27.910;2023-02-14T01:16:18;101889.16;;;2.29;100.00
11523;BME280;40093;43.224;27.910;2023-02-14T01:18:46;101875.84;;;2.28;100.00
11523;BME280;40093;43.224;27.910;2023-02-14T01:21:16;101862.19;;;2.33;100.00
11523;BME280;40093;43.224;27.910;2023-02-14T01:23:44;101867.75;;;2.46;100.00
11523;BME280;40093;43.224;27.910;2023-02-14T01:26:12;101869.50;;;2.37;100.00
11523;BME280;40093;43.224;27.910;2023-02-14T01:28:39;101869.97;;;2.44;100.00
11523;BME280;40093;43.224;27.910;2023-02-14T01:31:10;101867.91;;;2.54;100.00
11523;BME280;40093;43.224;27.910;2023-02-14T01:33:38;101868.78;;;2.50;100.00
11523;BME280;40093;43.224;27.910;2023-02-14T01:36:05;101871.50;;;2.50;100.00
11523;BME280;40093;43.224;27.910;2023-02-14T01:38:34;101853.69;;;2.62;100.00
11523;BME280;40093;43.224;27.910;2023-02-14T01:41:01;101857.69;;;2.70;100.00
11523;BME280;40093;43.224;27.910;2023-02-14T01:43:27;101864.53;;;2.67;100.00
11523;BME280;40093;43.224;27.910;2023-02-14T01:45:54;101867.59;;;2.61;100.00
11523;BME280;40093;43.224;27.910;2023-02-14T01:48:22;101870.31;;;2.61;100.00
11523;BME280;40093;43.224;27.910;2023-02-14T01:50:51;101860.59;;;2.55;100.00
11523;BME280;40093;43.224;27.910;2023-02-14T01:53:22;101856.91;;;2.46;100.00
11523;BME280;40093;43.224;27.910;2023-02-14T01:55:58;101857.00;;;2.59;100.00
11523;BME280;40093;43.224;27.910;2023-02-14T01:58:28;101854.41;;;2.73;100.00
11523;BME280;40093;43.224;27.910;2023-02-14T02:01:00;101858.22;;;2.72;100.00
11523;BME280;40093;43.224;27.910;2023-02-14T02:03:29;101857.81;;;2.60;100.00
11523;BME280;40093;43.224;27.910;2023-02-14T02:06:02;101847.16;;;2.63;100.00
11523;BME280;40093;43.224;27.910;2023-02-14T02:08:33;101830.75;;;2.50;100.00
11523;BME280;40093;43.224;27.910;2023-02-14T02:11:04;101822.31;;;2.51;100.00
11523;BME280;40093;43.224;27.910;2023-02-14T02:13:31;101821.06;;;2.44;100.00
11523;BME280;40093;43.224;27.910;2023-02-14T02:16:10;101813.88;;;2.53;100.00
11523;BME280;40093;43.224;27.910;2023-02-14T02:18:53;101816.59;;;2.53;100.00
11523;BME280;40093;43.224;27.910;2023-02-14T02:21:59;101816.09;;;2.51;100.00
11523;BME280;40093;43.224;27.910;2023-02-14T02:24:43;101816.66;;;2.48;100.00
11523;BME280;40093;43.224;27.910;2023-02-14T02:27:33;101806.09;;;2.46;100.00
11523;BME280;40093;43.224;27.910;2023-02-14T02:30:32;101795.03;;;2.38;100.00
11523;BME280;40093;43.224;27.910;2023-02-14T02:33:36;101790.22;;;2.53;100.00
11523;BME280;40093;43.224;27.910;2023-02-14T02:36:26;101799.16;;;2.36;100.00
11523;BME280;40093;43.224;27.910;2023-02-14T02:39:05;101790.81;;;2.27;100.00
11523;BME280;40093;43.224;27.910;2023-02-14T02:41:43;101794.47;;;2.41;100.00
11523;BME280;40093;43.224;27.910;2023-02-14T02:44:16;101786.97;;;2.33;100.00
11523;BME280;40093;43.224;27.910;2023-02-14T02:46:51;101787.66;;;2.20;100.00
11523;BME280;40093;43.224;27.910;2023-02-14T02:49:36;101788.22;;;2.17;100.00
11523;BME280;40093;43.224;27.910;2023-02-14T02:52:30;101793.72;;;2.12;100.00
11523;BME280;40093;43.224;27.910;2023-02-14T02:55:22;101796.78;;;2.06;100.00
11523;BME280;40093;43.224;27.910;2023-02-14T02:57:52;101797.69;;;1.96;100.00
11523;BME280;40093;43.224;27.910;2023-02-14T03:00:21;101803.50;;;2.13;100.00
11523;BME280;40093;43.224;27.910;2023-02-14T03:02:51;101783.03;;;1.97;100.00
11523;BME280;40093;43.224;27.910;2023-02-14T03:05:38;101772.94;;;2.03;100.00
11523;BME280;40093;43.224;27.910;2023-02-14T03:08:06;101782.34;;;2.10;100.00
11523;BME280;40093;43.224;27.910;2023-02-14T03:10:35;101773.03;;;2.16;100.00
11523;BME280;40093;43.224;27.910;2023-02-14T03:13:24;101766.63;;;2.31;100.00
11523;BME280;40093;43.224;27.910;2023-02-14T03:16:19;101759.34;;;2.26;100.00
11523;BME280;40093;43.224;27.910;2023-02-14T03:19:00;101762.88;;;2.27;100.00
11523;BME280;40093;43.224;27.910;2023-02-14T03:21:53;101765.25;;;2.10;100.00
11523;BME280;40093;43.224;27.910;2023-02-14T03:24:28;101755.44;;;2.14;100.00
11523;BME280;40093;43.224;27.910;2023-02-14T03:27:03;101749.56;;;2.02;100.00
11523;BME280;40093;43.224;27.910;2023-02-14T03:29:41;101753.69;;;1.99;100.00
11523;BME280;40093;43.224;27.910;2023-02-14T03:32:12;101749.56;;;2.02;100.00
11523;BME280;40093;43.224;27.910;2023-02-14T03:34:47;101736.59;;;1.99;100.00
11523;BME280;40093;43.224;27.910;2023-02-14T03:37:22;101735.66;;;1.85;100.00
11523;BME280;40093;43.224;27.910;2023-02-14T03:39:58;101734.28;;;1.87;100.00
11523;BME280;40093;43.224;27.910;2023-02-14T03:42:32;101731.34;;;1.84;100.00
11523;BME280;40093;43.224;27.910;2023-02-14T03:45:03;101719.06;;;1.86;100.00
11523;BME280;40093;43.224;27.910;2023-02-14T03:47:34;101722.72;;;1.77;100.00
11523;BME280;40093;43.224;27.910;2023-02-14T03:50:05;101720.28;;;1.75;100.00
11523;BME280;40093;43.224;27.910;2023-02-14T03:52:33;101713.72;;;1.81;100.00
11523;BME280;40093;43.224;27.910;2023-02-14T03:55:05;101714.88;;;1.75;100.00
11523;BME280;40093;43.224;27.910;2023-02-14T03:57:37;101692.22;;;1.61;100.00
11523;BME280;40093;43.224;27.910;2023-02-14T04:00:09;101714.31;;;1.78;100.00
11523;BME280;40093;43.224;27.910;2023-02-14T04:02:38;101714.69;;;1.67;100.00
11523;BME280;40093;43.224;27.910;2023-02-14T04:05:11;101709.50;;;1.70;100.00
11523;BME280;40093;43.224;27.910;2023-02-14T04:07:47;101704.59;;;1.72;100.00
11523;BME280;40093;43.224;27.910;2023-02-14T04:10:16;101704.16;;;1.65;100.00
11523;BME280;40093;43.224;27.910;2023-02-14T04:12:43;101705.91;;;1.51;100.00
11523;BME280;40093;43.224;27.910;2023-02-14T04:15:11;101712.56;;;1.64;100.00
11523;BME280;40093;43.224;27.910;2023-02-14T04:17:39;101719.50;;;1.75;100.00
11523;BME280;40093;43.224;27.910;2023-02-14T04:20:23;101730.25;;;1.85;100.00
11523;BME280;40093;43.224;27.910;2023-02-14T04:22:50;101730.53;;;1.83;100.00
11523;BME280;40093;43.224;27.910;2023-02-14T04:25:19;101725.59;;;1.85;100.00
11523;BME280;40093;43.224;27.910;2023-02-14T04:27:46;101729.84;;;1.73;100.00
11523;BME280;40093;43.224;27.910;2023-02-14T04:30:14;101732.25;;;1.74;100.00
11523;BME280;40093;43.224;27.910;2023-02-14T04:32:42;101736.91;;;1.69;100.00
11523;BME280;40093;43.224;27.910;2023-02-14T04:35:09;101741.91;;;1.85;100.00
11523;BME280;40093;43.224;27.910;2023-02-14T04:37:36;101746.53;;;1.85;100.00
11523;BME280;40093;43.224;27.910;2023-02-14T04:40:04;101733.31;;;1.78;100.00
11523;BME280;40093;43.224;27.910;2023-02-14T04:42:35;101731.28;;;1.89;100.00
11523;BME280;40093;43.224;27.910;2023-02-14T04:45:02;101736.34;;;1.95;100.00
11523;BME280;40093;43.224;27.910;2023-02-14T04:47:30;101733.22;;;1.83;100.00
11523;BME280;40093;43.224;27.910;2023-02-14T04:49:58;101732.78;;;1.76;100.00
11523;BME280;40093;43.224;27.910;2023-02-14T04:52:25;101726.72;;;1.84;100.00
11523;BME280;40093;43.224;27.910;2023-02-14T04:54:52;101734.16;;;1.74;100.00
11523;BME280;40093;43.224;27.910;2023-02-14T04:57:19;101738.84;;;1.68;100.00
11523;BME280;40093;43.224;27.910;2023-02-14T04:59:48;101735.44;;;1.81;100.00
11523;BME280;40093;43.224;27.910;2023-02-14T05:02:14;101735.44;;;1.81;100.00
11523;BME280;40093;43.224;27.910;2023-02-14T05:04:41;101732.22;;;1.79;100.00
11523;BME280;40093;43.224;27.910;2023-02-14T05:07:08;101733.81;;;1.80;100.00
11523;BME280;40093;43.224;27.910;2023-02-14T05:09:35;101728.97;;;1.77;100.00
11523;BME280;40093;43.224;27.910;2023-02-14T05:12:02;101726.44;;;1.86;100.00
11523;BME280;40093;43.224;27.910;2023-02-14T05:14:29;101734.69;;;1.99;100.00
11523;BME280;40093;43.224;27.910;2023-02-14T05:16:57;101735.59;;;2.13;100.00
11523;BME280;40093;43.224;27.910;2023-02-14T05:19:24;101734.16;;;2.21;100.00
11523;BME280;40093;43.224;27.910;2023-02-14T05:21:51;101749.78;;;2.10;100.00
11523;BME280;40093;43.224;27.910;2023-02-14T05:24:18;101754.09;;;2.11;100.00
11523;BME280;40093;43.224;27.910;2023-02-14T05:26:45;101745.38;;;2.14;100.00
11523;BME280;40093;43.224;27.910;2023-02-14T05:29:12;101741.16;;;2.03;100.00
11523;BME280;40093;43.224;27.910;2023-02-14T05:31:38;101745.38;;;2.14;100.00
11523;BME280;40093;43.224;27.910;2023-02-14T05:34:07;101747.44;;;2.22;100.00
11523;BME280;40093;43.224;27.910;2023-02-14T05:36:33;101743.56;;;2.28;100.00
11523;BME280;40093;43.224;27.910;2023-02-14T05:39:00;101736.97;;;2.34;100.00
11523;BME280;40093;43.224;27.910;2023-02-14T05:41:30;101752.16;;;2.35;100.00
11523;BME280;40093;43.224;27.910;2023-02-14T05:43:57;101742.47;;;2.29;100.00
11523;BME280;40093;43.224;27.910;2023-02-14T05:46:24;101759.91;;;2.46;100.00
11523;BME280;40093;43.224;27.910;2023-02-14T05:48:51;101753.06;;;2.49;100.00
11523;BME280;40093;43.224;27.910;2023-02-14T05:51:19;101741.41;;;2.48;100.00
11523;BME280;40093;43.224;27.910;2023-02-14T05:53:46;101756.47;;;2.59;100.00
11523;BME280;40093;43.224;27.910;2023-02-14T05:56:13;101748.16;;;2.69;100.00
11523;BME280;40093;43.224;27.910;2023-02-14T05:58:40;101752.72;;;2.74;100.00
11523;BME280;40093;43.224;27.910;2023-02-14T06:01:06;101746.47;;;2.92;100.00
11523;BME280;40093;43.224;27.910;2023-02-14T06:03:33;101734.53;;;3.06;100.00
11523;BME280;40093;43.224;27.910;2023-02-14T06:06:00;101731.09;;;3.33;100.00
11523;BME280;40093;43.224;27.910;2023-02-14T06:08:28;101741.97;;;3.51;100.00
11523;BME280;40093;43.224;27.910;2023-02-14T06:10:55;101750.56;;;3.72;100.00
11523;BME280;40093;43.224;27.910;2023-02-14T06:13:22;101743.72;;;3.88;100.00
11523;BME280;40093;43.224;27.910;2023-02-14T06:15:52;101741.91;;;3.97;100.00
11523;BME280;40093;43.224;27.910;2023-02-14T06:18:20;101721.13;;;4.14;100.00
11523;BME280;40093;43.224;27.910;2023-02-14T06:20:47;101719.00;;;4.38;100.00
11523;BME280;40093;43.224;27.910;2023-02-14T06:23:14;101720.16;;;4.59;100.00
11523;BME280;40093;43.224;27.910;2023-02-14T06:25:42;101725.16;;;4.79;100.00
11523;BME280;40093;43.224;27.910;2023-02-14T06:28:09;101728.25;;;4.86;100.00
11523;BME280;40093;43.224;27.910;2023-02-14T06:30:36;101723.06;;;4.98;100.00
11523;BME280;40093;43.224;27.910;2023-02-14T06:33:03;101729.63;;;5.19;99.85
11523;BME280;40093;43.224;27.910;2023-02-14T06:35:29;101737.59;;;5.29;97.57
11523;BME280;40093;43.224;27.910;2023-02-14T06:37:56;101719.59;;;5.28;96.58
11523;BME280;40093;43.224;27.910;2023-02-14T06:40:23;101723.63;;;5.30;95.15
11523;BME280;40093;43.224;27.910;2023-02-14T06:42:51;101716.69;;;5.02;95.35
11523;BME280;40093;43.224;27.910;2023-02-14T06:45:18;101719.53;;;4.97;96.47
11523;BME280;40093;43.224;27.910;2023-02-14T06:47:45;101712.84;;;5.03;96.60
11523;BME280;40093;43.224;27.910;2023-02-14T06:50:12;101708.38;;;5.07;97.16
11523;BME280;40093;43.224;27.910;2023-02-14T06:52:38;101703.41;;;5.09;96.80
11523;BME280;40093;43.224;27.910;2023-02-14T06:55:07;101692.38;;;5.14;96.42
11523;BME280;40093;43.224;27.910;2023-02-14T06:57:36;101702.03;;;5.42;96.84
11523;BME280;40093;43.224;27.910;2023-02-14T07:00:06;101704.94;;;5.76;95.41
11523;BME280;40093;43.224;27.910;2023-02-14T07:02:34;101708.78;;;5.75;93.80
11523;BME280;40093;43.224;27.910;2023-02-14T07:05:01;101722.59;;;6.01;93.72
11523;BME280;40093;43.224;27.910;2023-02-14T07:07:28;101721.94;;;6.04;91.18
11523;BME280;40093;43.224;27.910;2023-02-14T07:09:55;101722.81;;;6.21;91.12
11523;BME280;40093;43.224;27.910;2023-02-14T07:12:22;101719.81;;;6.48;90.79
11523;BME280;40093;43.224;27.910;2023-02-14T07:14:49;101721.63;;;6.78;88.12
11523;BME280;40093;43.224;27.910;2023-02-14T07:17:17;101721.13;;;7.02;87.55
11523;BME280;40093;43.224;27.910;2023-02-14T07:19:44;101724.69;;;6.85;85.44
11523;BME280;40093;43.224;27.910;2023-02-14T07:22:11;101721.63;;;6.61;85.76
11523;BME280;40093;43.224;27.910;2023-02-14T07:24:38;101720.91;;;6.30;86.98
11523;BME280;40093;43.224;27.910;2023-02-14T07:27:04;101718.63;;;6.15;88.92
11523;BME280;40093;43.224;27.910;2023-02-14T07:29:31;101722.75;;;6.04;90.96
11523;BME280;40093;43.224;27.910;2023-02-14T07:31:58;101717.41;;;6.38;91.35
11523;BME280;40093;43.224;27.910;2023-02-14T07:34:26;101722.25;;;6.75;90.96
11523;BME280;40093;43.224;27.910;2023-02-14T07:36:53;101724.22;;;7.00;89.97
11523;BME280;40093;43.224;27.910;2023-02-14T07:39:20;101730.97;;;7.11;89.52
11523;BME280;40093;43.224;27.910;2023-02-14T07:41:47;101726.31;;;7.03;89.48
11523;BME280;40093;43.224;27.910;2023-02-14T07:44:14;101725.81;;;7.01;90.43
11523;BME280;40093;43.224;27.910;2023-02-14T07:46:41;101727.56;;;7.22;89.61
11523;BME280;40093;43.224;27.910;2023-02-14T07:49:07;101723.84;;;7.44;88.84
11523;BME280;40093;43.224;27.910;2023-02-14T07:51:36;101714.63;;;7.57;84.10
11523;BME280;40093;43.224;27.910;2023-02-14T07:54:03;101715.06;;;7.76;81.74
11523;BME280;40093;43.224;27.910;2023-02-14T07:56:29;101708.19;;;7.99;80.73
11523;BME280;40093;43.224;27.910;2023-02-14T07:58:56;101709.00;;;8.37;79.33
11523;BME280;40093;43.224;27.910;2023-02-14T08:01:23;101707.03;;;8.66;77.30
11523;BME280;40093;43.224;27.910;2023-02-14T08:03:50;101709.03;;;8.98;75.23
11523;BME280;40093;43.224;27.910;2023-02-14T08:06:17;101717.28;;;9.31;74.35
11523;BME280;40093;43.224;27.910;2023-02-14T08:08:46;101704.44;;;9.23;71.42
11523;BME280;40093;43.224;27.910;2023-02-14T08:11:13;101701.38;;;9.04;71.90
11523;BME280;40093;43.224;27.910;2023-02-14T08:14:01;101699.31;;;9.33;70.62
11523;BME280;40093;43.224;27.910;2023-02-14T08:16:28;101698.00;;;9.19;69.71
11523;BME280;40093;43.224;27.910;2023-02-14T08:18:56;101696.47;;;9.42;69.49
11523;BME280;40093;43.224;27.910;2023-02-14T08:21:23;101685.69;;;9.25;67.89
11523;BME280;40093;43.224;27.910;2023-02-14T08:23:51;101687.03;;;9.19;68.48
11523;BME280;40093;43.224;27.910;2023-02-14T08:26:18;101682.47;;;9.23;68.78
11523;BME280;40093;43.224;27.910;2023-02-14T08:28:45;101683.88;;;9.41;67.49
11523;BME280;40093;43.224;27.910;2023-02-14T08:31:12;101676.88;;;9.31;66.39
11523;BME280;40093;43.224;27.910;2023-02-14T08:33:46;101681.91;;;9.29;67.04
11523;BME280;40093;43.224;27.910;2023-02-14T08:36:13;101676.78;;;9.40;66.96
11523;BME280;40093;43.224;27.910;2023-02-14T08:38:42;101675.88;;;9.36;66.85
11523;BME280;40093;43.224;27.910;2023-02-14T08:41:11;101681.63;;;9.43;66.24
11523;BME280;40093;43.224;27.910;2023-02-14T08:43:37;101675.28;;;9.30;66.32
11523;BME280;40093;43.224;27.910;2023-02-14T08:46:05;101672.47;;;9.51;65.70
11523;BME280;40093;43.224;27.910;2023-02-14T08:48:33;101668.16;;;9.73;65.66
11523;BME280;40093;43.224;27.910;2023-02-14T08:51:04;101673.88;;;9.92;64.68
11523;BME280;40093;43.224;27.910;2023-02-14T08:53:30;101666.78;;;9.91;64.27
11523;BME280;40093;43.224;27.910;2023-02-14T08:56:01;101663.81;;;9.96;62.79
11523;BME280;40093;43.224;27.910;2023-02-14T08:58:29;101662.78;;;9.89;63.56
11523;BME280;40093;43.224;27.910;2023-02-14T09:00:56;101654.56;;;10.01;62.84
11523;BME280;40093;43.224;27.910;2023-02-14T09:03:23;101653.72;;;10.00;62.22
11523;BME280;40093;43.224;27.910;2023-02-14T09:05:50;101653.72;;;10.00;61.65
11523;BME280;40093;43.224;27.910;2023-02-14T09:08:17;101653.53;;;10.17;61.25
11523;BME280;40093;43.224;27.910;2023-02-14T09:10:44;101650.97;;;10.00;60.58
11523;BME280;40093;43.224;27.910;2023-02-14T09:13:11;101649.63;;;10.18;60.24
11523;BME280;40093;43.224;27.910;2023-02-14T09:15:41;101631.06;;;10.27;59.85
11523;BME280;40093;43.224;27.910;2023-02-14T09:18:07;101637.88;;;10.45;59.29
11523;BME280;40093;43.224;27.910;2023-02-14T09:20:34;101636.22;;;10.68;58.99
11523;BME280;40093;43.224;27.910;2023-02-14T09:23:01;101636.44;;;11.03;58.25
11523;BME280;40093;43.224;27.910;2023-02-14T09:25:28;101638.44;;;11.18;55.28
11523;BME280;40093;43.224;27.910;2023-02-14T09:27:55;101628.94;;;11.31;53.70
11523;BME280;40093;43.224;27.910;2023-02-14T09:30:21;101623.78;;;11.29;53.35
11523;BME280;40093;43.224;27.910;2023-02-14T09:32:51;101621.59;;;11.07;52.67
11523;BME280;40093;43.224;27.910;2023-02-14T09:35:19;101615.22;;;11.03;53.39
11523;BME280;40093;43.224;27.910;2023-02-14T09:38:03;101621.53;;;11.19;52.84
11523;BME280;40093;43.224;27.910;2023-02-14T09:40:45;101623.50;;;11.19;52.64
11523;BME280;40093;43.224;27.910;2023-02-14T09:43:20;101625.72;;;11.13;53.48
11523;BME280;40093;43.224;27.910;2023-02-14T09:45:52;101620.94;;;10.98;53.22
11523;BME280;40093;43.224;27.910;2023-02-14T09:48:24;101617.59;;;10.77;53.60
11523;BME280;40093;43.224;27.910;2023-02-14T09:50:55;101615.91;;;10.73;52.44
11523;BME280;40093;43.224;27.910;2023-02-14T09:53:26;101617.16;;;10.75;52.90
11523;BME280;40093;43.224;27.910;2023-02-14T09:56:02;101619.47;;;10.73;53.84
11523;BME280;40093;43.224;27.910;2023-02-14T09:58:33;101615.59;;;10.62;55.09
11523;BME280;40093;43.224;27.910;2023-02-14T10:01:10;101614.13;;;10.53;54.84
11523;BME280;40093;43.224;27.910;2023-02-14T10:04:09;101615.84;;;10.57;54.63
11523;BME280;40093;43.224;27.910;2023-02-14T10:06:45;101614.69;;;10.58;54.33
11523;BME280;40093;43.224;27.910;2023-02-14T10:09:30;101613.06;;;10.57;53.77
11523;BME280;40093;43.224;27.910;2023-02-14T10:12:02;101606.97;;;10.64;54.35
11523;BME280;40093;43.224;27.910;2023-02-14T10:14:33;101601.63;;;10.83;53.56
11523;BME280;40093;43.224;27.910;2023-02-14T10:17:07;101604.25;;;10.91;53.81
11523;BME280;40093;43.224;27.910;2023-02-14T10:19:39;101593.16;;;11.03;52.74
11523;BME280;40093;43.224;27.910;2023-02-14T10:22:11;101585.47;;;10.81;52.73
11523;BME280;40093;43.224;27.910;2023-02-14T10:24:43;101584.03;;;11.15;52.87
11523;BME280;40093;43.224;27.910;2023-02-14T10:27:23;101582.34;;;11.41;51.64
11523;BME280;40093;43.224;27.910;2023-02-14T10:29:52;101577.66;;;11.42;50.91
11523;BME280;40093;43.224;27.910;2023-02-14T10:32:24;101572.78;;;11.35;50.30
11523;BME280;40093;43.224;27.910;2023-02-14T10:34:55;101577.25;;;11.12;49.20
11523;BME280;40093;43.224;27.910;2023-02-14T10:37:42;101569.72;;;11.25;48.64
11523;BME280;40093;43.224;27.910;2023-02-14T10:40:40;101570.66;;;11.01;49.75
11523;BME280;40093;43.224;27.910;2023-02-14T10:43:18;101562.94;;;11.07;50.00
11523;BME280;40093;43.224;27.910;2023-02-14T10:45:54;101559.06;;;11.08;49.91
11523;BME280;40093;43.224;27.910;2023-02-14T10:48:30;101539.31;;;11.21;50.27
11523;BME280;40093;43.224;27.910;2023-02-14T10:51:03;101552.13;;;11.29;49.71
11523;BME280;40093;43.224;27.910;2023-02-14T10:53:41;101559.34;;;11.34;49.79
11523;BME280;40093;43.224;27.910;2023-02-14T10:56:16;101569.28;;;11.54;50.07
11523;BME280;40093;43.224;27.910;2023-02-14T10:58:45;101560.69;;;11.55;49.33
11523;BME280;40093;43.224;27.910;2023-02-14T11:01:15;101551.41;;;11.17;49.59
11523;BME280;40093;43.224;27.910;2023-02-14T11:03:50;101546.53;;;11.26;49.98
11523;BME280;40093;43.224;27.910;2023-02-14T11:06:19;101553.59;;;10.96;49.18
11523;BME280;40093;43.224;27.910;2023-02-14T11:08:46;101534.16;;;10.89;48.33
11523;BME280;40093;43.224;27.910;2023-02-14T11:11:18;101543.38;;;10.96;48.99
11523;BME280;40093;43.224;27.910;2023-02-14T11:13:47;101530.94;;;10.87;48.09
11523;BME280;40093;43.224;27.910;2023-02-14T11:16:27;101535.91;;;10.81;48.07
11523;BME280;40093;43.224;27.910;2023-02-14T11:19:08;101538.41;;;10.86;48.52
11523;BME280;40093;43.224;27.910;2023-02-14T11:21:41;101526.13;;;10.84;49.85
11523;BME280;40093;43.224;27.910;2023-02-14T11:24:16;101510.34;;;10.96;50.36
11523;BME280;40093;43.224;27.910;2023-02-14T11:26:45;101517.91;;;11.15;49.00
11523;BME280;40093;43.224;27.910;2023-02-14T11:29:15;101511.75;;;11.21;49.34
11523;BME280;40093;43.224;27.910;2023-02-14T11:31:47;101511.22;;;11.00;49.57
11523;BME280;40093;43.224;27.910;2023-02-14T11:34:27;101506.09;;;11.14;49.25
11523;BME280;40093;43.224;27.910;2023-02-14T11:36:57;101521.09;;;11.01;49.49
11523;BME280;40093;43.224;27.910;2023-02-14T11:39:28;101509.19;;;10.97;49.15
11523;BME280;40093;43.224;27.910;2023-02-14T11:41:57;101521.25;;;10.93;50.44
11523;BME280;40093;43.224;27.910;2023-02-14T11:44:26;101500.63;;;10.71;49.57
11523;BME280;40093;43.224;27.910;2023-02-14T11:46:55;101522.91;;;10.66;50.33
11523;BME280;40093;43.224;27.910;2023-02-14T11:49:28;101519.22;;;10.47;49.59
11523;BME280;40093;43.224;27.910;2023-02-14T11:51:57;101497.81;;;10.40;50.13
11523;BME280;40093;43.224;27.910;2023-02-14T11:54:29;101520.31;;;10.30;50.94
11523;BME280;40093;43.224;27.910;2023-02-14T11:57:02;101514.41;;;10.44;50.89
11523;BME280;40093;43.224;27.910;2023-02-14T11:59:36;101488.63;;;10.79;49.89
11523;BME280;40093;43.224;27.910;2023-02-14T12:02:13;101508.44;;;10.85;50.21
11523;BME280;40093;43.224;27.910;2023-02-14T12:04:45;101505.03;;;11.03;49.13
11523;BME280;40093;43.224;27.910;2023-02-14T12:07:25;101496.31;;;10.86;49.41
11523;BME280;40093;43.224;27.910;2023-02-14T12:10:17;101494.78;;;11.19;49.61
11523;BME280;40093;43.224;27.910;2023-02-14T12:12:50;101489.63;;;11.33;49.90
11523;BME280;40093;43.224;27.910;2023-02-14T12:15:27;101491.06;;;11.27;49.67
11523;BME280;40093;43.224;27.910;2023-02-14T12:18:17;101486.19;;;11.21;49.59
11523;BME280;40093;43.224;27.910;2023-02-14T12:20:51;101494.97;;;11.42;48.75
11523;BME280;40093;43.224;27.910;2023-02-14T12:23:24;101491.25;;;11.03;48.70
11523;BME280;40093;43.224;27.910;2023-02-14T12:25:57;101478.88;;;10.97;50.05
11523;BME280;40093;43.224;27.910;2023-02-14T12:28:29;101486.97;;;11.06;49.85
11523;BME280;40093;43.224;27.910;2023-02-14T12:31:07;101486.31;;;11.43;49.61
11523;BME280;40093;43.224;27.910;2023-02-14T12:33:34;101475.22;;;11.55;48.91
11523;BME280;40093;43.224;27.910;2023-02-14T12:36:08;101476.56;;;11.61;48.68
11523;BME280;40093;43.224;27.910;2023-02-14T12:38:44;101455.69;;;11.79;48.66
11523;BME280;40093;43.224;27.910;2023-02-14T12:41:31;101459.56;;;11.44;49.71
11523;BME280;40093;43.224;27.910;2023-02-14T12:44:06;101456.41;;;11.26;49.93
11523;BME280;40093;43.224;27.910;2023-02-14T12:47:00;101447.09;;;11.15;50.48
11523;BME280;40093;43.224;27.910;2023-02-14T12:49:43;101457.91;;;11.08;51.43
11523;BME280;40093;43.224;27.910;2023-02-14T12:52:32;101456.84;;;10.97;51.49
11523;BME280;40093;43.224;27.910;2023-02-14T12:55:22;101449.94;;;10.88;51.49
11523;BME280;40093;43.224;27.910;2023-02-14T12:57:57;101462.16;;;10.90;50.97
11523;BME280;40093;43.224;27.910;2023-02-14T13:00:34;101455.06;;;10.89;51.92
11523;BME280;40093;43.224;27.910;2023-02-14T13:03:29;101462.69;;;10.80;51.94
11523;BME280;40093;43.224;27.910;2023-02-14T13:06:03;101467.13;;;10.85;52.01